sensor_id;sensor_type;location;lat;lon;timestamp;temperature;humidity
41882;DHT22;27562;47.524;12.404;2023-02-26T00:01:14;-0.40;99.90
41882;DHT22;27562;47.524;12.404;2023-02-26T00:03:40;-0.30;99.90
41882;DHT22;27562;47.524;12.404;2023-02-26T00:06:05;-0.30;99.90
41882;DHT22;27562;47.524;12.404;2023-02-26T00:08:31;-0.30;99.90
41882;DHT22;27562;47.524;12.404;2023-02-26T00:10:57;-0.30;99.90
41882;DHT22;27562;47.524;12.404;2023-02-26T00:13:23;-0.30;99.90
41882;DHT22;27562;47.524;12.404;2023-02-26T00:15:49;-0.30;99.90
41882;DHT22;27562;47.524;12.404;2023-02-26T00:18:16;-0.30;99.90
41882;DHT22;27562;47.524;12.404;2023-02-26T00:20:42;-0.30;99.90
41882;DHT22;27562;47.524;12.404;2023-02-26T00:23:11;-0.30;99.90
41882;DHT22;27562;47.524;12.404;2023-02-26T00:25:40;-0.30;99.90
41882;DHT22;27562;47.524;12.404;2023-02-26T00:28:06;-0.30;99.90
41882;DHT22;27562;47.524;12.404;2023-02-26T00:30:32;-0.30;99.90
41882;DHT22;27562;47.524;12.404;2023-02-26T00:32:58;-0.40;99.90
41882;DHT22;27562;47.524;12.404;2023-02-26T00:35:23;-0.40;99.90
41882;DHT22;27562;47.524;12.404;2023-02-26T00:37:54;-0.40;99.90
41882;DHT22;27562;47.524;12.404;2023-02-26T00:43:06;-0.40;99.90
41882;DHT22;27562;47.524;12.404;2023-02-26T00:45:32;-0.30;99.90
41882;DHT22;27562;47.524;12.404;2023-02-26T00:53:54;-0.30;99.90
41882;DHT22;27562;47.524;12.404;2023-02-26T00:56:23;-0.30;99.90
41882;DHT22;27562;47.524;12.404;2023-02-26T00:58:48;-0.30;99.90
41882;DHT22;27562;47.524;12.404;2023-02-26T01:01:14;-0.40;99.90
41882;DHT22;27562;47.524;12.404;2023-02-26T01:03:40;-0.40;99.90
41882;DHT22;27562;47.524;12.404;2023-02-26T01:06:09;-0.40;99.90
41882;DHT22;27562;47.524;12.404;2023-02-26T01:08:40;-0.40;99.90
41882;DHT22;27562;47.524;12.404;2023-02-26T01:11:07;-0.50;99.90
41882;DHT22;27562;47.524;12.404;2023-02-26T01:13:33;-0.50;99.90
41882;DHT22;27562;47.524;12.404;2023-02-26T01:16:01;-0.50;99.90
41882;DHT22;27562;47.524;12.404;2023-02-26T01:18:31;-0.50;99.90
41882;DHT22;27562;47.524;12.404;2023-02-26T01:21:02;-0.50;99.90
41882;DHT22;27562;47.524;12.404;2023-02-26T01:23:29;-0.50;99.90
41882;DHT22;27562;47.524;12.404;2023-02-26T01:26:17;-0.50;99.90
41882;DHT22;27562;47.524;12.404;2023-02-26T01:28:44;-0.60;99.90
41882;DHT22;27562;47.524;12.404;2023-02-26T01:31:53;-0.60;99.90
41882;DHT22;27562;47.524;12.404;2023-02-26T01:34:07;-0.60;99.90
41882;DHT22;27562;47.524;12.404;2023-02-26T01:36:37;-0.60;99.90
41882;DHT22;27562;47.524;12.404;2023-02-26T01:39:06;-0.60;99.90
41882;DHT22;27562;47.524;12.404;2023-02-26T01:41:42;-0.60;99.90
41882;DHT22;27562;47.524;12.404;2023-02-26T01:44:12;-0.60;99.90
41882;DHT22;27562;47.524;12.404;2023-02-26T01:49:17;-0.60;99.90
41882;DHT22;27562;47.524;12.404;2023-02-26T01:51:54;-0.70;99.90
41882;DHT22;27562;47.524;12.404;2023-02-26T01:54:21;-0.70;99.90
41882;DHT22;27562;47.524;12.404;2023-02-26T01:56:49;-0.80;99.90
41882;DHT22;27562;47.524;12.404;2023-02-26T01:59:15;-0.80;99.90
41882;DHT22;27562;47.524;12.404;2023-02-26T02:01:42;-0.70;99.90
41882;DHT22;27562;47.524;12.404;2023-02-26T02:04:12;-0.70;99.90
41882;DHT22;27562;47.524;12.404;2023-02-26T02:06:38;-0.70;99.90
41882;DHT22;27562;47.524;12.404;2023-02-26T02:09:05;-0.70;99.90
41882;DHT22;27562;47.524;12.404;2023-02-26T02:11:31;-0.80;99.90
41882;DHT22;27562;47.524;12.404;2023-02-26T02:14:05;-0.80;99.90
41882;DHT22;27562;47.524;12.404;2023-02-26T02:16:47;-0.80;99.90
41882;DHT22;27562;47.524;12.404;2023-02-26T02:30:06;-0.90;99.90
41882;DHT22;27562;47.524;12.404;2023-02-26T02:32:45;-0.90;99.90
41882;DHT22;27562;47.524;12.404;2023-02-26T02:35:20;-1.00;99.90
41882;DHT22;27562;47.524;12.404;2023-02-26T02:38:02;-1.10;99.90
41882;DHT22;27562;47.524;12.404;2023-02-26T02:40:30;-1.10;99.90
41882;DHT22;27562;47.524;12.404;2023-02-26T02:43:01;-1.20;99.90
41882;DHT22;27562;47.524;12.404;2023-02-26T02:45:35;-1.30;99.90
41882;DHT22;27562;47.524;12.404;2023-02-26T02:50:41;-1.40;99.90
41882;DHT22;27562;47.524;12.404;2023-02-26T02:53:10;-1.30;99.90
41882;DHT22;27562;47.524;12.404;2023-02-26T02:55:53;-1.30;99.90
41882;DHT22;27562;47.524;12.404;2023-02-26T02:58:21;-1.40;99.90
41882;DHT22;27562;47.524;12.404;2023-02-26T03:00:50;-1.40;99.90
41882;DHT22;27562;47.524;12.404;2023-02-26T03:05:43;-1.50;99.90
41882;DHT22;27562;47.524;12.404;2023-02-26T03:08:09;-1.50;99.90
41882;DHT22;27562;47.524;12.404;2023-02-26T03:10:36;-1.40;99.90
41882;DHT22;27562;47.524;12.404;2023-02-26T03:13:01;-1.50;99.90
41882;DHT22;27562;47.524;12.404;2023-02-26T03:15:33;-1.30;99.90
41882;DHT22;27562;47.524;12.404;2023-02-26T03:18:05;-1.40;99.90
41882;DHT22;27562;47.524;12.404;2023-02-26T03:20:33;-1.40;99.90
41882;DHT22;27562;47.524;12.404;2023-02-26T03:23:11;-1.40;99.90
41882;DHT22;27562;47.524;12.404;2023-02-26T03:28:06;-1.40;99.90
41882;DHT22;27562;47.524;12.404;2023-02-26T03:30:41;-1.40;99.90
41882;DHT22;27562;47.524;12.404;2023-02-26T03:33:26;-1.40;99.90
41882;DHT22;27562;47.524;12.404;2023-02-26T03:38:41;-1.50;99.90
41882;DHT22;27562;47.524;12.404;2023-02-26T03:41:12;-1.60;99.90
41882;DHT22;27562;47.524;12.404;2023-02-26T03:43:46;-1.60;99.90
41882;DHT22;27562;47.524;12.404;2023-02-26T03:46:13;-1.50;99.90
41882;DHT22;27562;47.524;12.404;2023-02-26T03:48:39;-1.50;99.90
41882;DHT22;27562;47.524;12.404;2023-02-26T03:51:11;-1.50;99.90
41882;DHT22;27562;47.524;12.404;2023-02-26T03:53:44;-1.50;99.90
41882;DHT22;27562;47.524;12.404;2023-02-26T03:56:20;-1.50;99.90
41882;DHT22;27562;47.524;12.404;2023-02-26T03:58:47;-1.40;99.90
41882;DHT22;27562;47.524;12.404;2023-02-26T04:01:14;-1.40;99.90
41882;DHT22;27562;47.524;12.404;2023-02-26T04:06:06;-1.40;99.90
41882;DHT22;27562;47.524;12.404;2023-02-26T04:08:32;-1.40;99.90
41882;DHT22;27562;47.524;12.404;2023-02-26T04:10:59;-1.40;99.90
41882;DHT22;27562;47.524;12.404;2023-02-26T04:13:27;-1.40;99.90
41882;DHT22;27562;47.524;12.404;2023-02-26T04:15:53;-1.50;99.90
41882;DHT22;27562;47.524;12.404;2023-02-26T04:18:18;-1.50;99.90
41882;DHT22;27562;47.524;12.404;2023-02-26T04:20:44;-1.60;99.90
41882;DHT22;27562;47.524;12.404;2023-02-26T04:23:10;-1.60;99.90
41882;DHT22;27562;47.524;12.404;2023-02-26T04:25:35;-1.60;99.90
41882;DHT22;27562;47.524;12.404;2023-02-26T04:28:01;-1.50;99.90
41882;DHT22;27562;47.524;12.404;2023-02-26T04:30:26;-1.60;99.90
41882;DHT22;27562;47.524;12.404;2023-02-26T04:32:52;-1.60;99.90
41882;DHT22;27562;47.524;12.404;2023-02-26T04:35:17;-1.60;99.90
41882;DHT22;27562;47.524;12.404;2023-02-26T04:37:43;-1.50;99.90
41882;DHT22;27562;47.524;12.404;2023-02-26T04:40:09;-1.60;99.90
41882;DHT22;27562;47.524;12.404;2023-02-26T04:42:34;-1.70;99.90
41882;DHT22;27562;47.524;12.404;2023-02-26T04:45:00;-1.70;99.90
41882;DHT22;27562;47.524;12.404;2023-02-26T04:47:25;-1.80;99.90
41882;DHT22;27562;47.524;12.404;2023-02-26T04:49:51;-1.80;99.90
41882;DHT22;27562;47.524;12.404;2023-02-26T04:52:17;-1.70;99.90
41882;DHT22;27562;47.524;12.404;2023-02-26T04:54:42;-1.70;99.90
41882;DHT22;27562;47.524;12.404;2023-02-26T04:57:08;-1.70;99.90
41882;DHT22;27562;47.524;12.404;2023-02-26T04:59:33;-1.80;99.90
41882;DHT22;27562;47.524;12.404;2023-02-26T05:01:59;-1.80;99.90
41882;DHT22;27562;47.524;12.404;2023-02-26T05:04:24;-1.80;99.90
41882;DHT22;27562;47.524;12.404;2023-02-26T05:06:50;-1.80;99.90
41882;DHT22;27562;47.524;12.404;2023-02-26T05:09:15;-1.80;99.90
41882;DHT22;27562;47.524;12.404;2023-02-26T05:11:41;-1.80;99.90
41882;DHT22;27562;47.524;12.404;2023-02-26T05:14:07;-1.80;99.90
41882;DHT22;27562;47.524;12.404;2023-02-26T05:16:32;-1.80;99.90
41882;DHT22;27562;47.524;12.404;2023-02-26T05:18:58;-1.80;99.90
41882;DHT22;27562;47.524;12.404;2023-02-26T05:21:23;-1.90;99.90
41882;DHT22;27562;47.524;12.404;2023-02-26T05:23:49;-1.90;99.90
41882;DHT22;27562;47.524;12.404;2023-02-26T05:26:15;-2.00;99.90
41882;DHT22;27562;47.524;12.404;2023-02-26T05:28:40;-2.00;99.90
41882;DHT22;27562;47.524;12.404;2023-02-26T05:31:10;-2.00;99.90
41882;DHT22;27562;47.524;12.404;2023-02-26T05:33:36;-2.00;99.90
41882;DHT22;27562;47.524;12.404;2023-02-26T05:36:01;-2.00;99.90
41882;DHT22;27562;47.524;12.404;2023-02-26T05:38:27;-2.10;99.90
41882;DHT22;27562;47.524;12.404;2023-02-26T05:40:56;-2.00;99.90
41882;DHT22;27562;47.524;12.404;2023-02-26T05:43:22;-2.00;99.90
41882;DHT22;27562;47.524;12.404;2023-02-26T05:45:51;-2.00;99.90
41882;DHT22;27562;47.524;12.404;2023-02-26T05:48:17;-2.00;99.90
41882;DHT22;27562;47.524;12.404;2023-02-26T05:50:42;-2.00;99.90
41882;DHT22;27562;47.524;12.404;2023-02-26T05:53:08;-2.10;99.90
41882;DHT22;27562;47.524;12.404;2023-02-26T05:55:34;-2.00;99.90
41882;DHT22;27562;47.524;12.404;2023-02-26T05:57:59;-2.10;99.90
41882;DHT22;27562;47.524;12.404;2023-02-26T06:00:25;-2.10;99.90
41882;DHT22;27562;47.524;12.404;2023-02-26T06:02:51;-2.10;99.90
41882;DHT22;27562;47.524;12.404;2023-02-26T06:05:17;-2.10;99.90
41882;DHT22;27562;47.524;12.404;2023-02-26T06:07:42;-2.00;99.90
41882;DHT22;27562;47.524;12.404;2023-02-26T06:10:08;-2.10;99.90
41882;DHT22;27562;47.524;12.404;2023-02-26T06:12:34;-2.10;99.90
41882;DHT22;27562;47.524;12.404;2023-02-26T06:15:00;-2.20;99.90
41882;DHT22;27562;47.524;12.404;2023-02-26T06:17:26;-2.30;99.90
41882;DHT22;27562;47.524;12.404;2023-02-26T06:19:52;-2.20;99.90
41882;DHT22;27562;47.524;12.404;2023-02-26T06:22:17;-2.20;99.90
41882;DHT22;27562;47.524;12.404;2023-02-26T06:24:43;-2.20;99.90
41882;DHT22;27562;47.524;12.404;2023-02-26T06:27:08;-2.20;99.90
41882;DHT22;27562;47.524;12.404;2023-02-26T06:29:34;-2.10;99.90
41882;DHT22;27562;47.524;12.404;2023-02-26T06:32:02;-2.10;99.90
41882;DHT22;27562;47.524;12.404;2023-02-26T06:34:27;-2.20;99.90
41882;DHT22;27562;47.524;12.404;2023-02-26T06:36:53;-2.10;99.90
41882;DHT22;27562;47.524;12.404;2023-02-26T06:39:19;-2.10;99.90
41882;DHT22;27562;47.524;12.404;2023-02-26T06:41:44;-2.00;99.90
41882;DHT22;27562;47.524;12.404;2023-02-26T06:44:10;-2.00;99.90
41882;DHT22;27562;47.524;12.404;2023-02-26T06:46:36;-1.90;99.90
41882;DHT22;27562;47.524;12.404;2023-02-26T06:49:02;-1.90;99.90
41882;DHT22;27562;47.524;12.404;2023-02-26T06:51:28;-1.90;99.90
41882;DHT22;27562;47.524;12.404;2023-02-26T06:53:53;-1.80;99.90
41882;DHT22;27562;47.524;12.404;2023-02-26T06:56:19;-1.90;99.90
41882;DHT22;27562;47.524;12.404;2023-02-26T06:58:44;-1.90;99.90
41882;DHT22;27562;47.524;12.404;2023-02-26T07:01:10;-1.80;99.90
41882;DHT22;27562;47.524;12.404;2023-02-26T07:03:36;-1.70;99.90
41882;DHT22;27562;47.524;12.404;2023-02-26T07:06:01;-1.80;99.90
41882;DHT22;27562;47.524;12.404;2023-02-26T07:08:27;-1.80;99.90
41882;DHT22;27562;47.524;12.404;2023-02-26T07:10:52;-1.80;99.90
41882;DHT22;27562;47.524;12.404;2023-02-26T07:13:18;-1.80;99.90
41882;DHT22;27562;47.524;12.404;2023-02-26T07:15:43;-1.90;99.90
41882;DHT22;27562;47.524;12.404;2023-02-26T07:18:09;-1.90;99.90
41882;DHT22;27562;47.524;12.404;2023-02-26T07:20:35;-1.80;99.90
41882;DHT22;27562;47.524;12.404;2023-02-26T07:23:00;-1.70;99.90
41882;DHT22;27562;47.524;12.404;2023-02-26T07:25:27;-1.80;99.90
41882;DHT22;27562;47.524;12.404;2023-02-26T07:27:52;-1.80;99.90
41882;DHT22;27562;47.524;12.404;2023-02-26T07:30:19;-1.70;99.90
41882;DHT22;27562;47.524;12.404;2023-02-26T07:32:44;-1.60;99.90
41882;DHT22;27562;47.524;12.404;2023-02-26T07:35:10;-1.60;99.90
41882;DHT22;27562;47.524;12.404;2023-02-26T07:37:35;-1.60;99.90
41882;DHT22;27562;47.524;12.404;2023-02-26T07:40:01;-1.60;99.90
41882;DHT22;27562;47.524;12.404;2023-02-26T07:42:27;-1.60;99.90
41882;DHT22;27562;47.524;12.404;2023-02-26T07:44:53;-1.60;99.90
41882;DHT22;27562;47.524;12.404;2023-02-26T07:47:18;-1.60;99.90
41882;DHT22;27562;47.524;12.404;2023-02-26T07:49:44;-1.70;99.90
41882;DHT22;27562;47.524;12.404;2023-02-26T07:52:09;-1.60;99.90
41882;DHT22;27562;47.524;12.404;2023-02-26T07:54:35;-1.70;99.90
41882;DHT22;27562;47.524;12.404;2023-02-26T07:57:01;-1.70;99.90
41882;DHT22;27562;47.524;12.404;2023-02-26T07:59:27;-1.70;99.90
41882;DHT22;27562;47.524;12.404;2023-02-26T08:01:52;-1.70;99.90
41882;DHT22;27562;47.524;12.404;2023-02-26T08:04:18;-1.70;99.90
41882;DHT22;27562;47.524;12.404;2023-02-26T08:06:44;-1.80;99.90
41882;DHT22;27562;47.524;12.404;2023-02-26T08:09:10;-1.70;99.90
41882;DHT22;27562;47.524;12.404;2023-02-26T08:11:36;-1.80;99.90
41882;DHT22;27562;47.524;12.404;2023-02-26T08:14:07;-1.70;99.90
41882;DHT22;27562;47.524;12.404;2023-02-26T08:16:33;-1.70;99.90
41882;DHT22;27562;47.524;12.404;2023-02-26T08:18:59;-1.70;99.90
41882;DHT22;27562;47.524;12.404;2023-02-26T08:21:25;-1.60;99.90
41882;DHT22;27562;47.524;12.404;2023-02-26T08:23:50;-1.70;99.90
41882;DHT22;27562;47.524;12.404;2023-02-26T08:26:17;-1.70;99.90
41882;DHT22;27562;47.524;12.404;2023-02-26T08:28:42;-1.70;99.90
41882;DHT22;27562;47.524;12.404;2023-02-26T08:31:08;-1.70;99.90
41882;DHT22;27562;47.524;12.404;2023-02-26T08:33:34;-1.70;99.90
41882;DHT22;27562;47.524;12.404;2023-02-26T08:36:00;-1.70;99.90
41882;DHT22;27562;47.524;12.404;2023-02-26T08:38:28;-1.60;99.90
41882;DHT22;27562;47.524;12.404;2023-02-26T08:40:54;-1.50;99.90
41882;DHT22;27562;47.524;12.404;2023-02-26T08:43:21;-1.40;99.90
41882;DHT22;27562;47.524;12.404;2023-02-26T08:45:46;-1.30;99.90
41882;DHT22;27562;47.524;12.404;2023-02-26T08:48:12;-1.20;99.90
41882;DHT22;27562;47.524;12.404;2023-02-26T08:50:38;-1.20;99.90
41882;DHT22;27562;47.524;12.404;2023-02-26T08:53:04;-1.10;99.90
41882;DHT22;27562;47.524;12.404;2023-02-26T08:55:30;-1.20;99.90
41882;DHT22;27562;47.524;12.404;2023-02-26T08:57:56;-1.30;99.90
41882;DHT22;27562;47.524;12.404;2023-02-26T09:00:21;-1.40;99.90
41882;DHT22;27562;47.524;12.404;2023-02-26T09:02:47;-1.40;99.90
41882;DHT22;27562;47.524;12.404;2023-02-26T09:05:13;-1.50;99.90
41882;DHT22;27562;47.524;12.404;2023-02-26T09:07:39;-1.50;99.90
41882;DHT22;27562;47.524;12.404;2023-02-26T09:10:05;-1.40;99.90
41882;DHT22;27562;47.524;12.404;2023-02-26T09:12:31;-1.40;99.90
41882;DHT22;27562;47.524;12.404;2023-02-26T09:14:57;-1.10;99.90
41882;DHT22;27562;47.524;12.404;2023-02-26T09:17:24;-1.00;99.90
41882;DHT22;27562;47.524;12.404;2023-02-26T09:19:49;-0.90;99.90
41882;DHT22;27562;47.524;12.404;2023-02-26T09:22:15;-0.80;99.90
41882;DHT22;27562;47.524;12.404;2023-02-26T09:24:40;-0.90;99.90
41882;DHT22;27562;47.524;12.404;2023-02-26T09:27:06;-1.00;99.90
41882;DHT22;27562;47.524;12.404;2023-02-26T09:29:31;-1.10;99.90
41882;DHT22;27562;47.524;12.404;2023-02-26T09:31:57;-1.10;99.90
41882;DHT22;27562;47.524;12.404;2023-02-26T09:34:23;-1.10;99.90
41882;DHT22;27562;47.524;12.404;2023-02-26T09:36:48;-1.10;99.90
41882;DHT22;27562;47.524;12.404;2023-02-26T09:39:14;-1.10;99.90
41882;DHT22;27562;47.524;12.404;2023-02-26T09:41:40;-1.20;99.90
41882;DHT22;27562;47.524;12.404;2023-02-26T09:51:39;-1.20;99.90
41882;DHT22;27562;47.524;12.404;2023-02-26T09:54:13;-1.30;99.90
41882;DHT22;27562;47.524;12.404;2023-02-26T09:56:39;-1.40;99.90
41882;DHT22;27562;47.524;12.404;2023-02-26T09:59:05;-1.40;99.90
41882;DHT22;27562;47.524;12.404;2023-02-26T10:01:42;-1.30;99.90
41882;DHT22;27562;47.524;12.404;2023-02-26T10:09:13;-1.20;99.90
41882;DHT22;27562;47.524;12.404;2023-02-26T10:11:59;-1.20;99.90
41882;DHT22;27562;47.524;12.404;2023-02-26T10:16:54;-1.10;99.90
41882;DHT22;27562;47.524;12.404;2023-02-26T10:19:22;-1.10;99.90
41882;DHT22;27562;47.524;12.404;2023-02-26T10:22:00;-1.10;99.90
41882;DHT22;27562;47.524;12.404;2023-02-26T10:27:06;-1.10;99.90
41882;DHT22;27562;47.524;12.404;2023-02-26T10:29:39;-1.00;99.90
41882;DHT22;27562;47.524;12.404;2023-02-26T10:34:44;-0.90;99.90
41882;DHT22;27562;47.524;12.404;2023-02-26T10:45:17;-0.70;99.90
41882;DHT22;27562;47.524;12.404;2023-02-26T10:50:24;-0.70;99.90
41882;DHT22;27562;47.524;12.404;2023-02-26T10:52:51;-0.80;99.90
41882;DHT22;27562;47.524;12.404;2023-02-26T10:57:59;-0.80;99.90
41882;DHT22;27562;47.524;12.404;2023-02-26T11:00:26;-0.70;99.90
41882;DHT22;27562;47.524;12.404;2023-02-26T11:02:52;-0.40;99.90
41882;DHT22;27562;47.524;12.404;2023-02-26T11:05:28;-0.40;99.90
41882;DHT22;27562;47.524;12.404;2023-02-26T11:07:55;-0.30;99.90
41882;DHT22;27562;47.524;12.404;2023-02-26T11:10:22;-0.30;99.90
41882;DHT22;27562;47.524;12.404;2023-02-26T11:12:49;-0.40;99.90
41882;DHT22;27562;47.524;12.404;2023-02-26T11:15:18;-0.30;99.90
41882;DHT22;27562;47.524;12.404;2023-02-26T11:17:45;-0.30;99.90
41882;DHT22;27562;47.524;12.404;2023-02-26T11:20:14;-0.30;99.90
41882;DHT22;27562;47.524;12.404;2023-02-26T11:22:45;-0.30;99.90
41882;DHT22;27562;47.524;12.404;2023-02-26T11:25:16;-0.30;99.90
41882;DHT22;27562;47.524;12.404;2023-02-26T11:27:42;-0.40;99.90
41882;DHT22;27562;47.524;12.404;2023-02-26T11:30:14;-0.40;99.90
41882;DHT22;27562;47.524;12.404;2023-02-26T11:32:43;-0.40;99.90
41882;DHT22;27562;47.524;12.404;2023-02-26T11:35:12;-0.30;99.90
41882;DHT22;27562;47.524;12.404;2023-02-26T11:37:38;-0.20;99.90
41882;DHT22;27562;47.524;12.404;2023-02-26T11:40:06;0.10;99.90
41882;DHT22;27562;47.524;12.404;2023-02-26T11:42:40;0.30;99.90
41882;DHT22;27562;47.524;12.404;2023-02-26T11:45:11;0.50;99.90
41882;DHT22;27562;47.524;12.404;2023-02-26T11:47:38;0.70;99.90
41882;DHT22;27562;47.524;12.404;2023-02-26T11:50:09;0.80;99.90
41882;DHT22;27562;47.524;12.404;2023-02-26T11:52:41;0.80;99.90
41882;DHT22;27562;47.524;12.404;2023-02-26T11:57:42;0.60;99.90
41882;DHT22;27562;47.524;12.404;2023-02-26T12:00:18;0.50;99.90
41882;DHT22;27562;47.524;12.404;2023-02-26T12:02:44;0.50;99.90
41882;DHT22;27562;47.524;12.404;2023-02-26T12:05:11;0.30;99.90
41882;DHT22;27562;47.524;12.404;2023-02-26T12:07:38;0.30;99.90
41882;DHT22;27562;47.524;12.404;2023-02-26T12:10:12;0.50;99.90
41882;DHT22;27562;47.524;12.404;2023-02-26T12:12:44;0.50;99.90
41882;DHT22;27562;47.524;12.404;2023-02-26T12:15:22;0.50;99.90
41882;DHT22;27562;47.524;12.404;2023-02-26T12:18:34;0.40;99.90
41882;DHT22;27562;47.524;12.404;2023-02-26T12:23:19;0.50;99.90
41882;DHT22;27562;47.524;12.404;2023-02-26T12:26:08;0.70;99.90
41882;DHT22;27562;47.524;12.404;2023-02-26T12:28:42;0.70;99.90
41882;DHT22;27562;47.524;12.404;2023-02-26T12:31:20;0.80;99.90
41882;DHT22;27562;47.524;12.404;2023-02-26T12:34:02;0.90;99.90
41882;DHT22;27562;47.524;12.404;2023-02-26T12:39:31;1.10;99.90
41882;DHT22;27562;47.524;12.404;2023-02-26T12:49:48;1.00;99.90
41882;DHT22;27562;47.524;12.404;2023-02-26T12:52:20;1.00;99.90
41882;DHT22;27562;47.524;12.404;2023-02-26T12:57:49;1.20;99.90
41882;DHT22;27562;47.524;12.404;2023-02-26T13:00:26;1.40;99.90
41882;DHT22;27562;47.524;12.404;2023-02-26T13:03:40;1.70;99.90
41882;DHT22;27562;47.524;12.404;2023-02-26T13:16:13;1.10;99.90
41882;DHT22;27562;47.524;12.404;2023-02-26T13:21:42;0.10;99.90
41882;DHT22;27562;47.524;12.404;2023-02-26T13:26:31;-0.40;99.90
41882;DHT22;27562;47.524;12.404;2023-02-26T13:29:02;-0.50;99.90
41882;DHT22;27562;47.524;12.404;2023-02-26T13:31:33;-0.50;99.90
41882;DHT22;27562;47.524;12.404;2023-02-26T13:34:01;-0.60;99.90
41882;DHT22;27562;47.524;12.404;2023-02-26T13:36:29;-0.60;99.90
41882;DHT22;27562;47.524;12.404;2023-02-26T13:41:36;-0.30;99.90
41882;DHT22;27562;47.524;12.404;2023-02-26T13:51:47;-0.20;99.90
41882;DHT22;27562;47.524;12.404;2023-02-26T14:01:54;-0.30;99.90
41882;DHT22;27562;47.524;12.404;2023-02-26T14:06:59;-0.70;99.90
41882;DHT22;27562;47.524;12.404;2023-02-26T14:09:35;-0.80;99.90
41882;DHT22;27562;47.524;12.404;2023-02-26T14:19:33;-0.50;99.90
41882;DHT22;27562;47.524;12.404;2023-02-26T14:22:16;-0.40;99.90
41882;DHT22;27562;47.524;12.404;2023-02-26T14:24:56;-0.40;99.90
41882;DHT22;27562;47.524;12.404;2023-02-26T14:27:29;-0.30;99.90
41882;DHT22;27562;47.524;12.404;2023-02-26T14:34:53;-0.10;99.90
41882;DHT22;27562;47.524;12.404;2023-02-26T14:37:23;0.00;99.90
41882;DHT22;27562;47.524;12.404;2023-02-26T14:40:09;0.00;99.90
41882;DHT22;27562;47.524;12.404;2023-02-26T14:42:50;0.00;99.90
41882;DHT22;27562;47.524;12.404;2023-02-26T14:47:44;0.00;99.90
41882;DHT22;27562;47.524;12.404;2023-02-26T14:50:13;-0.10;99.90
41882;DHT22;27562;47.524;12.404;2023-02-26T14:57:58;-0.20;99.90
41882;DHT22;27562;47.524;12.404;2023-02-26T15:00:40;-0.10;99.90
41882;DHT22;27562;47.524;12.404;2023-02-26T15:08:21;-0.20;99.90
41882;DHT22;27562;47.524;12.404;2023-02-26T15:10:58;-0.40;99.90
41882;DHT22;27562;47.524;12.404;2023-02-26T15:13:38;-0.40;99.90
41882;DHT22;27562;47.524;12.404;2023-02-26T15:26:12;-0.10;99.90
41882;DHT22;27562;47.524;12.404;2023-02-26T15:28:40;0.10;99.90
41882;DHT22;27562;47.524;12.404;2023-02-26T15:31:07;0.20;99.90
41882;DHT22;27562;47.524;12.404;2023-02-26T15:33:34;0.20;99.90
41882;DHT22;27562;47.524;12.404;2023-02-26T15:36:11;0.30;99.90
41882;DHT22;27562;47.524;12.404;2023-02-26T15:38:48;0.30;99.90
41882;DHT22;27562;47.524;12.404;2023-02-26T15:41:14;0.30;99.90
41882;DHT22;27562;47.524;12.404;2023-02-26T15:43:43;0.30;99.90
41882;DHT22;27562;47.524;12.404;2023-02-26T15:46:10;0.30;98.60
41882;DHT22;27562;47.524;12.404;2023-02-26T15:48:37;0.20;98.30
41882;DHT22;27562;47.524;12.404;2023-02-26T15:51:08;0.10;99.90
41882;DHT22;27562;47.524;12.404;2023-02-26T15:53:41;0.00;99.90
41882;DHT22;27562;47.524;12.404;2023-02-26T15:56:10;0.00;99.90
41882;DHT22;27562;47.524;12.404;2023-02-26T15:58:41;0.00;99.90
41882;DHT22;27562;47.524;12.404;2023-02-26T16:01:20;0.00;99.90
41882;DHT22;27562;47.524;12.404;2023-02-26T16:03:46;-0.20;99.90
41882;DHT22;27562;47.524;12.404;2023-02-26T16:06:18;-0.30;99.90
41882;DHT22;27562;47.524;12.404;2023-02-26T16:08:44;-0.30;99.90
41882;DHT22;27562;47.524;12.404;2023-02-26T16:11:10;-0.40;99.90
41882;DHT22;27562;47.524;12.404;2023-02-26T16:13:41;-0.50;99.90
41882;DHT22;27562;47.524;12.404;2023-02-26T16:16:12;-0.50;99.90
41882;DHT22;27562;47.524;12.404;2023-02-26T16:18:40;-0.60;99.90
41882;DHT22;27562;47.524;12.404;2023-02-26T16:21:07;-0.60;99.90
41882;DHT22;27562;47.524;12.404;2023-02-26T16:23:43;-0.60;99.90
41882;DHT22;27562;47.524;12.404;2023-02-26T16:26:31;-0.70;99.90
41882;DHT22;27562;47.524;12.404;2023-02-26T16:29:05;-0.70;99.90
41882;DHT22;27562;47.524;12.404;2023-02-26T16:31:32;-0.70;99.90
41882;DHT22;27562;47.524;12.404;2023-02-26T16:34:00;-0.70;99.90
41882;DHT22;27562;47.524;12.404;2023-02-26T16:36:38;-0.80;99.90
41882;DHT22;27562;47.524;12.404;2023-02-26T16:39:23;-0.80;99.90
41882;DHT22;27562;47.524;12.404;2023-02-26T16:42:11;-0.80;99.90
41882;DHT22;27562;47.524;12.404;2023-02-26T16:44:43;-0.90;99.90
41882;DHT22;27562;47.524;12.404;2023-02-26T16:47:10;-1.00;99.90
41882;DHT22;27562;47.524;12.404;2023-02-26T16:49:37;-1.10;99.90
41882;DHT22;27562;47.524;12.404;2023-02-26T16:52:04;-1.10;99.90
41882;DHT22;27562;47.524;12.404;2023-02-26T16:54:33;-1.10;99.90
41882;DHT22;27562;47.524;12.404;2023-02-26T16:57:05;-1.20;99.90
41882;DHT22;27562;47.524;12.404;2023-02-26T16:59:36;-1.20;99.90
41882;DHT22;27562;47.524;12.404;2023-02-26T17:02:11;-1.20;99.90
41882;DHT22;27562;47.524;12.404;2023-02-26T17:04:38;-1.20;99.90
41882;DHT22;27562;47.524;12.404;2023-02-26T17:07:06;-1.20;99.90
41882;DHT22;27562;47.524;12.404;2023-02-26T17:09:40;-1.20;99.90
41882;DHT22;27562;47.524;12.404;2023-02-26T17:12:16;-1.20;99.90
41882;DHT22;27562;47.524;12.404;2023-02-26T17:14:43;-1.20;99.90
41882;DHT22;27562;47.524;12.404;2023-02-26T17:17:12;-1.20;99.90
41882;DHT22;27562;47.524;12.404;2023-02-26T17:19:38;-1.00;99.90
41882;DHT22;27562;47.524;12.404;2023-02-26T17:22:04;-1.10;99.90
41882;DHT22;27562;47.524;12.404;2023-02-26T17:24:33;-1.20;99.90
41882;DHT22;27562;47.524;12.404;2023-02-26T17:27:00;-1.20;99.90
41882;DHT22;27562;47.524;12.404;2023-02-26T17:29:36;-1.20;99.90
41882;DHT22;27562;47.524;12.404;2023-02-26T17:32:03;-1.30;99.90
41882;DHT22;27562;47.524;12.404;2023-02-26T17:34:29;-1.30;99.90
41882;DHT22;27562;47.524;12.404;2023-02-26T17:36:55;-1.30;99.90
41882;DHT22;27562;47.524;12.404;2023-02-26T17:39:22;-1.20;99.90
41882;DHT22;27562;47.524;12.404;2023-02-26T17:41:48;-1.20;99.90
41882;DHT22;27562;47.524;12.404;2023-02-26T17:44:14;-1.20;99.90
41882;DHT22;27562;47.524;12.404;2023-02-26T17:46:40;-1.20;99.90
41882;DHT22;27562;47.524;12.404;2023-02-26T17:49:06;-1.20;99.90
41882;DHT22;27562;47.524;12.404;2023-02-26T17:51:32;-1.20;99.90
41882;DHT22;27562;47.524;12.404;2023-02-26T17:53:57;-1.10;99.90
41882;DHT22;27562;47.524;12.404;2023-02-26T17:56:27;-1.10;99.90
41882;DHT22;27562;47.524;12.404;2023-02-26T17:58:55;-1.10;99.90
41882;DHT22;27562;47.524;12.404;2023-02-26T18:01:21;-1.10;99.90
41882;DHT22;27562;47.524;12.404;2023-02-26T18:03:50;-1.00;99.90
41882;DHT22;27562;47.524;12.404;2023-02-26T18:06:16;-1.10;99.90